sensor_id;sensor_type;location;lat;lon;timestamp;P1;durP1;ratioP1;P2;durP2;ratioP2
50585;SDS011;36542;51.700;8.846;2023-04-24T00:02:12;1.43;;;0.87;;
50585;SDS011;36542;51.700;8.846;2023-04-24T00:04:38;0.90;;;0.90;;
50585;SDS011;36542;51.700;8.846;2023-04-24T00:07:05;1.77;;;0.80;;
50585;SDS011;36542;51.700;8.846;2023-04-24T00:09:31;3.93;;;1.30;;
50585;SDS011;36542;51.700;8.846;2023-04-24T00:11:57;1.40;;;0.90;;
50585;SDS011;36542;51.700;8.846;2023-04-24T00:14:23;0.90;;;0.90;;
50585;SDS011;36542;51.700;8.846;2023-04-24T00:16:48;1.17;;;0.97;;
50585;SDS011;36542;51.700;8.846;2023-04-24T00:19:14;0.77;;;0.77;;
50585;SDS011;36542;51.700;8.846;2023-04-24T00:21:39;0.67;;;0.67;;
50585;SDS011;36542;51.700;8.846;2023-04-24T00:24:06;1.00;;;0.90;;
50585;SDS011;36542;51.700;8.846;2023-04-24T00:26:33;1.70;;;0.90;;
50585;SDS011;36542;51.700;8.846;2023-04-24T00:28:59;1.00;;;1.00;;
50585;SDS011;36542;51.700;8.846;2023-04-24T00:31:25;0.90;;;0.90;;
50585;SDS011;36542;51.700;8.846;2023-04-24T00:33:50;0.70;;;0.70;;
50585;SDS011;36542;51.700;8.846;2023-04-24T00:36:16;1.00;;;1.00;;
50585;SDS011;36542;51.700;8.846;2023-04-24T00:38:41;1.23;;;0.97;;
50585;SDS011;36542;51.700;8.846;2023-04-24T00:41:07;1.00;;;1.00;;
50585;SDS011;36542;51.700;8.846;2023-04-24T00:43:32;1.60;;;0.87;;
50585;SDS011;36542;51.700;8.846;2023-04-24T00:45:58;0.80;;;0.80;;
50585;SDS011;36542;51.700;8.846;2023-04-24T00:48:24;1.90;;;0.90;;
50585;SDS011;36542;51.700;8.846;2023-04-24T00:50:50;0.80;;;0.80;;
50585;SDS011;36542;51.700;8.846;2023-04-24T00:53:15;1.10;;;0.97;;
50585;SDS011;36542;51.700;8.846;2023-04-24T00:55:41;1.40;;;1.30;;
50585;SDS011;36542;51.700;8.846;2023-04-24T00:58:06;0.80;;;0.80;;
50585;SDS011;36542;51.700;8.846;2023-04-24T01:00:32;1.03;;;0.87;;
50585;SDS011;36542;51.700;8.846;2023-04-24T01:02:59;1.17;;;0.90;;
50585;SDS011;36542;51.700;8.846;2023-04-24T01:05:28;1.33;;;0.90;;
50585;SDS011;36542;51.700;8.846;2023-04-24T01:07:53;0.90;;;0.90;;
50585;SDS011;36542;51.700;8.846;2023-04-24T01:10:19;1.10;;;1.00;;
50585;SDS011;36542;51.700;8.846;2023-04-24T01:12:45;0.80;;;0.80;;
50585;SDS011;36542;51.700;8.846;2023-04-24T01:15:11;0.60;;;0.60;;
50585;SDS011;36542;51.700;8.846;2023-04-24T01:17:36;1.00;;;1.00;;
50585;SDS011;36542;51.700;8.846;2023-04-24T01:20:03;1.00;;;0.80;;
50585;SDS011;36542;51.700;8.846;2023-04-24T01:22:30;1.77;;;0.70;;
50585;SDS011;36542;51.700;8.846;2023-04-24T01:24:56;0.97;;;0.70;;
50585;SDS011;36542;51.700;8.846;2023-04-24T01:27:22;0.87;;;0.73;;
50585;SDS011;36542;51.700;8.846;2023-04-24T01:29:47;0.67;;;0.67;;
50585;SDS011;36542;51.700;8.846;2023-04-24T01:32:14;2.50;;;0.90;;
50585;SDS011;36542;51.700;8.846;2023-04-24T01:34:40;1.00;;;1.00;;
50585;SDS011;36542;51.700;8.846;2023-04-24T01:37:06;0.77;;;0.77;;
50585;SDS011;36542;51.700;8.846;2023-04-24T01:39:32;0.80;;;0.80;;
50585;SDS011;36542;51.700;8.846;2023-04-24T01:41:58;2.40;;;1.10;;
50585;SDS011;36542;51.700;8.846;2023-04-24T01:44:24;0.90;;;0.90;;
50585;SDS011;36542;51.700;8.846;2023-04-24T01:46:51;0.77;;;0.77;;
50585;SDS011;36542;51.700;8.846;2023-04-24T01:49:18;1.43;;;1.00;;
50585;SDS011;36542;51.700;8.846;2023-04-24T01:51:43;1.20;;;1.00;;
50585;SDS011;36542;51.700;8.846;2023-04-24T01:54:09;0.97;;;0.90;;
50585;SDS011;36542;51.700;8.846;2023-04-24T01:56:34;0.87;;;0.70;;
50585;SDS011;36542;51.700;8.846;2023-04-24T01:59:01;0.80;;;0.80;;
50585;SDS011;36542;51.700;8.846;2023-04-24T02:01:31;0.70;;;0.70;;
50585;SDS011;36542;51.700;8.846;2023-04-24T02:03:59;0.90;;;0.70;;
50585;SDS011;36542;51.700;8.846;2023-04-24T02:06:25;0.70;;;0.70;;
50585;SDS011;36542;51.700;8.846;2023-04-24T02:08:50;0.60;;;0.60;;
50585;SDS011;36542;51.700;8.846;2023-04-24T02:11:16;0.77;;;0.77;;
50585;SDS011;36542;51.700;8.846;2023-04-24T02:13:41;1.20;;;0.60;;
50585;SDS011;36542;51.700;8.846;2023-04-24T02:16:07;1.13;;;0.80;;
50585;SDS011;36542;51.700;8.846;2023-04-24T02:18:32;0.77;;;0.77;;
50585;SDS011;36542;51.700;8.846;2023-04-24T02:20:58;0.93;;;0.70;;
50585;SDS011;36542;51.700;8.846;2023-04-24T02:23:23;1.17;;;0.87;;
50585;SDS011;36542;51.700;8.846;2023-04-24T02:25:49;0.70;;;0.70;;
50585;SDS011;36542;51.700;8.846;2023-04-24T02:28:14;1.07;;;0.97;;
50585;SDS011;36542;51.700;8.846;2023-04-24T02:30:39;0.70;;;0.70;;
50585;SDS011;36542;51.700;8.846;2023-04-24T02:33:05;0.93;;;0.70;;
50585;SDS011;36542;51.700;8.846;2023-04-24T02:35:31;0.60;;;0.60;;
50585;SDS011;36542;51.700;8.846;2023-04-24T02:37:56;1.27;;;1.00;;
50585;SDS011;36542;51.700;8.846;2023-04-24T02:40:22;0.70;;;0.70;;
50585;SDS011;36542;51.700;8.846;2023-04-24T02:42:47;1.47;;;0.83;;
50585;SDS011;36542;51.700;8.846;2023-04-24T02:45:13;0.90;;;0.90;;
50585;SDS011;36542;51.700;8.846;2023-04-24T02:47:38;2.07;;;1.03;;
50585;SDS011;36542;51.700;8.846;2023-04-24T02:50:04;0.67;;;0.67;;
50585;SDS011;36542;51.700;8.846;2023-04-24T02:52:30;1.73;;;0.77;;
50585;SDS011;36542;51.700;8.846;2023-04-24T02:54:55;1.23;;;0.80;;
50585;SDS011;36542;51.700;8.846;2023-04-24T02:57:21;0.80;;;0.80;;
50585;SDS011;36542;51.700;8.846;2023-04-24T02:59:46;1.70;;;0.80;;
50585;SDS011;36542;51.700;8.846;2023-04-24T03:02:11;2.40;;;0.90;;
50585;SDS011;36542;51.700;8.846;2023-04-24T03:04:37;1.70;;;1.20;;
50585;SDS011;36542;51.700;8.846;2023-04-24T03:07:04;1.27;;;0.83;;
50585;SDS011;36542;51.700;8.846;2023-04-24T03:09:30;0.80;;;0.80;;
50585;SDS011;36542;51.700;8.846;2023-04-24T03:11:56;2.37;;;1.23;;
50585;SDS011;36542;51.700;8.846;2023-04-24T03:14:23;1.53;;;1.20;;
50585;SDS011;36542;51.700;8.846;2023-04-24T03:16:48;1.07;;;1.07;;
50585;SDS011;36542;51.700;8.846;2023-04-24T03:19:15;1.83;;;1.10;;
50585;SDS011;36542;51.700;8.846;2023-04-24T03:21:40;1.43;;;1.27;;
50585;SDS011;36542;51.700;8.846;2023-04-24T03:24:09;1.60;;;1.20;;
50585;SDS011;36542;51.700;8.846;2023-04-24T03:26:34;1.17;;;1.07;;
50585;SDS011;36542;51.700;8.846;2023-04-24T03:29:00;2.70;;;1.33;;
50585;SDS011;36542;51.700;8.846;2023-04-24T03:31:26;1.53;;;1.30;;
50585;SDS011;36542;51.700;8.846;2023-04-24T03:33:51;1.33;;;1.23;;
50585;SDS011;36542;51.700;8.846;2023-04-24T03:36:17;2.57;;;1.20;;
50585;SDS011;36542;51.700;8.846;2023-04-24T03:38:44;1.33;;;1.23;;
50585;SDS011;36542;51.700;8.846;2023-04-24T03:41:10;1.50;;;1.40;;
50585;SDS011;36542;51.700;8.846;2023-04-24T03:43:36;1.13;;;1.10;;
50585;SDS011;36542;51.700;8.846;2023-04-24T03:46:02;1.87;;;1.37;;
50585;SDS011;36542;51.700;8.846;2023-04-24T03:48:27;1.17;;;1.10;;
50585;SDS011;36542;51.700;8.846;2023-04-24T03:50:53;1.83;;;1.40;;
50585;SDS011;36542;51.700;8.846;2023-04-24T03:53:18;1.17;;;1.07;;
50585;SDS011;36542;51.700;8.846;2023-04-24T03:55:44;1.20;;;1.10;;
50585;SDS011;36542;51.700;8.846;2023-04-24T03:58:10;1.47;;;1.20;;
50585;SDS011;36542;51.700;8.846;2023-04-24T04:00:36;2.43;;;1.40;;
50585;SDS011;36542;51.700;8.846;2023-04-24T04:03:02;1.60;;;1.50;;
50585;SDS011;36542;51.700;8.846;2023-04-24T04:05:28;3.50;;;1.40;;
50585;SDS011;36542;51.700;8.846;2023-04-24T04:07:53;1.80;;;1.47;;
50585;SDS011;36542;51.700;8.846;2023-04-24T04:10:19;1.77;;;1.60;;
50585;SDS011;36542;51.700;8.846;2023-04-24T04:12:45;2.07;;;1.40;;
50585;SDS011;36542;51.700;8.846;2023-04-24T04:15:10;1.50;;;1.40;;
50585;SDS011;36542;51.700;8.846;2023-04-24T04:17:36;1.70;;;1.47;;
50585;SDS011;36542;51.700;8.846;2023-04-24T04:20:03;5.30;;;1.73;;
50585;SDS011;36542;51.700;8.846;2023-04-24T04:22:34;1.80;;;1.63;;
50585;SDS011;36542;51.700;8.846;2023-04-24T04:24:59;1.40;;;1.30;;
50585;SDS011;36542;51.700;8.846;2023-04-24T04:27:25;3.50;;;1.57;;
50585;SDS011;36542;51.700;8.846;2023-04-24T04:29:51;1.87;;;1.67;;
50585;SDS011;36542;51.700;8.846;2023-04-24T04:32:17;3.37;;;1.93;;
50585;SDS011;36542;51.700;8.846;2023-04-24T04:34:42;2.03;;;1.60;;
50585;SDS011;36542;51.700;8.846;2023-04-24T04:37:10;2.03;;;1.93;;
50585;SDS011;36542;51.700;8.846;2023-04-24T04:39:37;3.33;;;2.47;;
50585;SDS011;36542;51.700;8.846;2023-04-24T04:42:03;3.10;;;2.83;;
50585;SDS011;36542;51.700;8.846;2023-04-24T04:44:28;2.80;;;2.60;;
50585;SDS011;36542;51.700;8.846;2023-04-24T04:46:55;3.40;;;3.07;;
50585;SDS011;36542;51.700;8.846;2023-04-24T04:49:21;2.97;;;2.67;;
50585;SDS011;36542;51.700;8.846;2023-04-24T04:51:48;2.40;;;2.30;;
50585;SDS011;36542;51.700;8.846;2023-04-24T04:54:15;2.43;;;2.33;;
50585;SDS011;36542;51.700;8.846;2023-04-24T04:56:41;3.23;;;2.93;;
50585;SDS011;36542;51.700;8.846;2023-04-24T04:59:06;3.40;;;2.90;;
50585;SDS011;36542;51.700;8.846;2023-04-24T05:01:32;5.40;;;3.23;;
50585;SDS011;36542;51.700;8.846;2023-04-24T05:03:57;3.87;;;3.57;;
50585;SDS011;36542;51.700;8.846;2023-04-24T05:06:23;4.63;;;4.00;;
50585;SDS011;36542;51.700;8.846;2023-04-24T05:08:48;6.00;;;4.30;;
50585;SDS011;36542;51.700;8.846;2023-04-24T05:11:14;4.57;;;4.17;;
50585;SDS011;36542;51.700;8.846;2023-04-24T05:13:39;5.50;;;4.13;;
50585;SDS011;36542;51.700;8.846;2023-04-24T05:16:05;5.10;;;4.20;;
50585;SDS011;36542;51.700;8.846;2023-04-24T05:18:31;5.17;;;4.67;;
50585;SDS011;36542;51.700;8.846;2023-04-24T05:20:56;5.23;;;4.73;;
50585;SDS011;36542;51.700;8.846;2023-04-24T05:23:22;6.43;;;4.80;;
50585;SDS011;36542;51.700;8.846;2023-04-24T05:25:47;5.30;;;4.80;;
50585;SDS011;36542;51.700;8.846;2023-04-24T05:28:13;6.30;;;5.50;;
50585;SDS011;36542;51.700;8.846;2023-04-24T05:30:40;10.50;;;6.83;;
50585;SDS011;36542;51.700;8.846;2023-04-24T05:33:05;9.17;;;6.50;;
50585;SDS011;36542;51.700;8.846;2023-04-24T05:35:31;8.63;;;7.23;;
50585;SDS011;36542;51.700;8.846;2023-04-24T05:37:56;11.43;;;8.37;;
50585;SDS011;36542;51.700;8.846;2023-04-24T05:40:22;11.30;;;8.30;;
50585;SDS011;36542;51.700;8.846;2023-04-24T05:42:47;8.97;;;7.70;;
50585;SDS011;36542;51.700;8.846;2023-04-24T05:45:13;11.10;;;8.10;;
50585;SDS011;36542;51.700;8.846;2023-04-24T05:47:41;10.30;;;7.53;;
50585;SDS011;36542;51.700;8.846;2023-04-24T05:50:08;8.63;;;7.40;;
50585;SDS011;36542;51.700;8.846;2023-04-24T05:52:34;10.07;;;8.13;;
50585;SDS011;36542;51.700;8.846;2023-04-24T05:55:00;10.40;;;8.10;;
50585;SDS011;36542;51.700;8.846;2023-04-24T05:57:25;12.23;;;8.83;;
50585;SDS011;36542;51.700;8.846;2023-04-24T05:59:51;10.87;;;8.00;;
50585;SDS011;36542;51.700;8.846;2023-04-24T06:02:16;8.43;;;7.57;;
50585;SDS011;36542;51.700;8.846;2023-04-24T06:04:42;8.53;;;7.43;;
50585;SDS011;36542;51.700;8.846;2023-04-24T06:07:10;8.87;;;7.20;;
50585;SDS011;36542;51.700;8.846;2023-04-24T06:09:36;8.10;;;6.80;;
50585;SDS011;36542;51.700;8.846;2023-04-24T06:12:01;7.93;;;6.40;;
50585;SDS011;36542;51.700;8.846;2023-04-24T06:14:27;9.33;;;6.93;;
50585;SDS011;36542;51.700;8.846;2023-04-24T06:16:53;7.37;;;6.17;;
50585;SDS011;36542;51.700;8.846;2023-04-24T06:19:18;7.83;;;7.07;;
50585;SDS011;36542;51.700;8.846;2023-04-24T06:21:44;7.70;;;6.00;;
50585;SDS011;36542;51.700;8.846;2023-04-24T06:24:09;7.23;;;6.17;;
50585;SDS011;36542;51.700;8.846;2023-04-24T06:26:35;6.03;;;5.27;;
50585;SDS011;36542;51.700;8.846;2023-04-24T06:29:01;6.20;;;5.40;;
50585;SDS011;36542;51.700;8.846;2023-04-24T06:31:26;6.43;;;5.70;;
50585;SDS011;36542;51.700;8.846;2023-04-24T06:33:52;6.90;;;5.60;;
50585;SDS011;36542;51.700;8.846;2023-04-24T06:36:17;6.20;;;5.60;;
50585;SDS011;36542;51.700;8.846;2023-04-24T06:38:43;6.43;;;4.93;;
50585;SDS011;36542;51.700;8.846;2023-04-24T06:41:09;6.50;;;5.50;;
50585;SDS011;36542;51.700;8.846;2023-04-24T06:43:35;5.73;;;5.07;;
50585;SDS011;36542;51.700;8.846;2023-04-24T06:46:00;5.87;;;5.37;;
50585;SDS011;36542;51.700;8.846;2023-04-24T06:48:28;6.60;;;5.83;;
50585;SDS011;36542;51.700;8.846;2023-04-24T06:50:53;8.47;;;5.90;;
50585;SDS011;36542;51.700;8.846;2023-04-24T06:53:19;7.50;;;6.17;;
50585;SDS011;36542;51.700;8.846;2023-04-24T06:55:45;8.20;;;7.40;;
50585;SDS011;36542;51.700;8.846;2023-04-24T06:58:11;8.53;;;6.90;;
50585;SDS011;36542;51.700;8.846;2023-04-24T07:00:37;9.10;;;7.60;;
50585;SDS011;36542;51.700;8.846;2023-04-24T07:03:03;11.60;;;7.80;;
50585;SDS011;36542;51.700;8.846;2023-04-24T07:05:30;10.90;;;7.80;;
50585;SDS011;36542;51.700;8.846;2023-04-24T07:07:55;7.47;;;6.77;;
50585;SDS011;36542;51.700;8.846;2023-04-24T07:10:23;9.23;;;6.50;;
50585;SDS011;36542;51.700;8.846;2023-04-24T07:12:49;8.27;;;6.77;;
50585;SDS011;36542;51.700;8.846;2023-04-24T07:15:14;8.83;;;6.83;;
50585;SDS011;36542;51.700;8.846;2023-04-24T07:17:41;7.33;;;6.63;;
50585;SDS011;36542;51.700;8.846;2023-04-24T07:20:09;7.13;;;6.30;;
50585;SDS011;36542;51.700;8.846;2023-04-24T07:22:35;7.17;;;6.33;;
50585;SDS011;36542;51.700;8.846;2023-04-24T07:25:02;7.17;;;5.33;;
50585;SDS011;36542;51.700;8.846;2023-04-24T07:27:28;7.97;;;6.40;;
50585;SDS011;36542;51.700;8.846;2023-04-24T07:29:53;6.83;;;6.13;;
50585;SDS011;36542;51.700;8.846;2023-04-24T07:32:19;6.97;;;5.80;;
50585;SDS011;36542;51.700;8.846;2023-04-24T07:34:45;6.33;;;5.20;;
50585;SDS011;36542;51.700;8.846;2023-04-24T07:37:10;6.70;;;5.87;;
50585;SDS011;36542;51.700;8.846;2023-04-24T07:39:36;6.50;;;5.30;;
50585;SDS011;36542;51.700;8.846;2023-04-24T07:42:01;5.13;;;4.60;;
50585;SDS011;36542;51.700;8.846;2023-04-24T07:44:28;5.23;;;4.57;;
50585;SDS011;36542;51.700;8.846;2023-04-24T07:46:54;5.63;;;4.73;;
50585;SDS011;36542;51.700;8.846;2023-04-24T07:49:20;6.63;;;4.60;;
50585;SDS011;36542;51.700;8.846;2023-04-24T07:51:46;5.53;;;4.57;;
50585;SDS011;36542;51.700;8.846;2023-04-24T07:54:11;4.97;;;4.27;;
50585;SDS011;36542;51.700;8.846;2023-04-24T07:56:37;5.77;;;4.60;;
50585;SDS011;36542;51.700;8.846;2023-04-24T07:59:07;4.67;;;4.23;;
50585;SDS011;36542;51.700;8.846;2023-04-24T08:01:34;5.33;;;4.47;;
50585;SDS011;36542;51.700;8.846;2023-04-24T08:04:00;5.47;;;4.90;;
50585;SDS011;36542;51.700;8.846;2023-04-24T08:06:25;5.90;;;4.33;;
50585;SDS011;36542;51.700;8.846;2023-04-24T08:08:55;6.40;;;4.20;;
50585;SDS011;36542;51.700;8.846;2023-04-24T08:11:21;5.67;;;4.10;;
50585;SDS011;36542;51.700;8.846;2023-04-24T08:13:46;5.97;;;4.60;;
50585;SDS011;36542;51.700;8.846;2023-04-24T08:16:12;4.90;;;4.40;;
50585;SDS011;36542;51.700;8.846;2023-04-24T08:18:37;5.47;;;4.50;;
50585;SDS011;36542;51.700;8.846;2023-04-24T08:21:03;4.27;;;3.87;;
50585;SDS011;36542;51.700;8.846;2023-04-24T08:23:29;5.97;;;4.20;;
50585;SDS011;36542;51.700;8.846;2023-04-24T08:25:54;4.67;;;4.20;;
50585;SDS011;36542;51.700;8.846;2023-04-24T08:28:20;4.17;;;3.77;;
50585;SDS011;36542;51.700;8.846;2023-04-24T08:30:46;5.93;;;4.90;;
50585;SDS011;36542;51.700;8.846;2023-04-24T08:33:13;5.97;;;4.67;;
50585;SDS011;36542;51.700;8.846;2023-04-24T08:35:39;4.30;;;3.90;;
50585;SDS011;36542;51.700;8.846;2023-04-24T08:38:05;5.30;;;4.07;;
50585;SDS011;36542;51.700;8.846;2023-04-24T08:40:30;5.00;;;4.20;;
50585;SDS011;36542;51.700;8.846;2023-04-24T08:42:59;4.80;;;4.00;;
50585;SDS011;36542;51.700;8.846;2023-04-24T08:45:25;4.40;;;4.00;;
50585;SDS011;36542;51.700;8.846;2023-04-24T08:47:52;4.40;;;3.67;;
50585;SDS011;36542;51.700;8.846;2023-04-24T08:50:18;5.93;;;4.10;;
50585;SDS011;36542;51.700;8.846;2023-04-24T08:52:44;4.87;;;3.87;;
50585;SDS011;36542;51.700;8.846;2023-04-24T08:55:09;5.33;;;3.70;;
50585;SDS011;36542;51.700;8.846;2023-04-24T08:57:35;3.87;;;3.07;;
50585;SDS011;36542;51.700;8.846;2023-04-24T09:00:03;3.90;;;3.50;;
50585;SDS011;36542;51.700;8.846;2023-04-24T09:02:29;5.13;;;3.50;;
50585;SDS011;36542;51.700;8.846;2023-04-24T09:04:57;4.33;;;3.10;;
50585;SDS011;36542;51.700;8.846;2023-04-24T09:07:24;3.90;;;3.47;;
50585;SDS011;36542;51.700;8.846;2023-04-24T09:09:52;4.50;;;2.73;;
50585;SDS011;36542;51.700;8.846;2023-04-24T09:12:18;3.90;;;3.10;;
50585;SDS011;36542;51.700;8.846;2023-04-24T09:14:44;3.33;;;2.87;;
50585;SDS011;36542;51.700;8.846;2023-04-24T09:17:10;5.83;;;3.80;;
50585;SDS011;36542;51.700;8.846;2023-04-24T09:19:36;2.80;;;2.50;;
50585;SDS011;36542;51.700;8.846;2023-04-24T09:22:05;3.90;;;3.13;;
50585;SDS011;36542;51.700;8.846;2023-04-24T09:24:32;3.80;;;2.93;;
50585;SDS011;36542;51.700;8.846;2023-04-24T09:26:58;3.87;;;2.90;;
50585;SDS011;36542;51.700;8.846;2023-04-24T09:29:26;3.53;;;2.60;;
50585;SDS011;36542;51.700;8.846;2023-04-24T09:31:52;2.50;;;2.30;;
50585;SDS011;36542;51.700;8.846;2023-04-24T09:34:23;3.03;;;2.20;;
50585;SDS011;36542;51.700;8.846;2023-04-24T09:36:50;3.23;;;2.60;;
50585;SDS011;36542;51.700;8.846;2023-04-24T09:39:16;2.90;;;2.17;;
50585;SDS011;36542;51.700;8.846;2023-04-24T09:41:48;3.60;;;2.43;;
50585;SDS011;36542;51.700;8.846;2023-04-24T09:44:18;2.23;;;1.90;;
50585;SDS011;36542;51.700;8.846;2023-04-24T09:46:55;2.30;;;2.10;;
50585;SDS011;36542;51.700;8.846;2023-04-24T09:49:24;1.53;;;1.43;;
50585;SDS011;36542;51.700;8.846;2023-04-24T09:51:51;1.63;;;1.53;;
50585;SDS011;36542;51.700;8.846;2023-04-24T09:54:19;1.07;;;1.07;;
50585;SDS011;36542;51.700;8.846;2023-04-24T09:56:46;1.30;;;1.20;;
50585;SDS011;36542;51.700;8.846;2023-04-24T09:59:14;1.17;;;1.07;;
50585;SDS011;36542;51.700;8.846;2023-04-24T10:01:41;2.17;;;1.20;;
50585;SDS011;36542;51.700;8.846;2023-04-24T10:04:19;1.73;;;1.00;;
50585;SDS011;36542;51.700;8.846;2023-04-24T10:06:49;4.57;;;1.17;;
50585;SDS011;36542;51.700;8.846;2023-04-24T10:09:17;0.97;;;0.83;;
50585;SDS011;36542;51.700;8.846;2023-04-24T10:11:44;1.47;;;1.10;;
50585;SDS011;36542;51.700;8.846;2023-04-24T10:14:14;0.80;;;0.73;;
50585;SDS011;36542;51.700;8.846;2023-04-24T10:16:42;1.53;;;0.63;;
50585;SDS011;36542;51.700;8.846;2023-04-24T10:19:09;1.37;;;0.80;;
50585;SDS011;36542;51.700;8.846;2023-04-24T10:21:35;1.73;;;0.63;;
50585;SDS011;36542;51.700;8.846;2023-04-24T10:24:07;0.80;;;0.80;;
50585;SDS011;36542;51.700;8.846;2023-04-24T10:26:33;0.60;;;0.60;;
50585;SDS011;36542;51.700;8.846;2023-04-24T10:29:00;0.67;;;0.67;;
50585;SDS011;36542;51.700;8.846;2023-04-24T10:31:26;0.90;;;0.90;;
50585;SDS011;36542;51.700;8.846;2023-04-24T10:33:55;0.87;;;0.87;;
50585;SDS011;36542;51.700;8.846;2023-04-24T10:36:23;0.90;;;0.90;;
50585;SDS011;36542;51.700;8.846;2023-04-24T10:38:51;0.70;;;0.70;;
50585;SDS011;36542;51.700;8.846;2023-04-24T10:41:19;0.67;;;0.67;;
50585;SDS011;36542;51.700;8.846;2023-04-24T10:43:48;0.50;;;0.50;;
50585;SDS011;36542;51.700;8.846;2023-04-24T10:46:32;0.43;;;0.43;;
50585;SDS011;36542;51.700;8.846;2023-04-24T10:48:58;0.43;;;0.43;;
50585;SDS011;36542;51.700;8.846;2023-04-24T10:54:27;1.90;;;0.50;;
50585;SDS011;36542;51.700;8.846;2023-04-24T11:00:29;0.40;;;0.40;;
50585;SDS011;36542;51.700;8.846;2023-04-24T11:02:40;1.07;;;0.50;;
50585;SDS011;36542;51.700;8.846;2023-04-24T11:05:14;0.50;;;0.50;;
50585;SDS011;36542;51.700;8.846;2023-04-24T11:10:40;0.80;;;0.80;;
50585;SDS011;36542;51.700;8.846;2023-04-24T11:13:08;0.60;;;0.60;;
50585;SDS011;36542;51.700;8.846;2023-04-24T11:15:34;1.40;;;0.60;;
50585;SDS011;36542;51.700;8.846;2023-04-24T11:18:00;1.80;;;0.80;;
50585;SDS011;36542;51.700;8.846;2023-04-24T11:20:25;0.83;;;0.80;;
50585;SDS011;36542;51.700;8.846;2023-04-24T11:22:52;0.70;;;0.70;;
50585;SDS011;36542;51.700;8.846;2023-04-24T11:25:19;0.60;;;0.60;;
50585;SDS011;36542;51.700;8.846;2023-04-24T11:27:47;0.80;;;0.80;;
50585;SDS011;36542;51.700;8.846;2023-04-24T11:30:17;0.80;;;0.80;;
50585;SDS011;36542;51.700;8.846;2023-04-24T11:32:43;1.10;;;1.10;;
50585;SDS011;36542;51.700;8.846;2023-04-24T11:35:14;1.20;;;1.10;;
50585;SDS011;36542;51.700;8.846;2023-04-24T11:37:44;1.17;;;1.10;;
50585;SDS011;36542;51.700;8.846;2023-04-24T11:40:12;1.80;;;1.70;;
50585;SDS011;36542;51.700;8.846;2023-04-24T11:42:43;5.10;;;2.83;;
50585;SDS011;36542;51.700;8.846;2023-04-24T11:45:11;2.20;;;2.03;;
50585;SDS011;36542;51.700;8.846;2023-04-24T11:47:39;3.00;;;2.70;;
50585;SDS011;36542;51.700;8.846;2023-04-24T11:50:06;4.80;;;3.07;;
50585;SDS011;36542;51.700;8.846;2023-04-24T11:52:36;6.80;;;4.67;;
50585;SDS011;36542;51.700;8.846;2023-04-24T11:55:03;5.43;;;4.27;;
50585;SDS011;36542;51.700;8.846;2023-04-24T11:57:29;4.53;;;3.37;;
50585;SDS011;36542;51.700;8.846;2023-04-24T11:59:59;4.07;;;3.43;;
50585;SDS011;36542;51.700;8.846;2023-04-24T12:02:29;3.80;;;3.50;;
50585;SDS011;36542;51.700;8.846;2023-04-24T12:04:55;3.17;;;2.67;;
50585;SDS011;36542;51.700;8.846;2023-04-24T12:07:21;2.47;;;2.27;;
50585;SDS011;36542;51.700;8.846;2023-04-24T12:09:49;3.37;;;2.37;;
50585;SDS011;36542;51.700;8.846;2023-04-24T12:12:20;4.07;;;2.60;;
50585;SDS011;36542;51.700;8.846;2023-04-24T12:14:52;2.83;;;2.63;;
50585;SDS011;36542;51.700;8.846;2023-04-24T12:17:23;3.30;;;3.00;;
50585;SDS011;36542;51.700;8.846;2023-04-24T12:19:51;4.27;;;3.87;;
50585;SDS011;36542;51.700;8.846;2023-04-24T12:22:16;5.53;;;3.30;;
50585;SDS011;36542;51.700;8.846;2023-04-24T12:25:01;3.10;;;2.50;;
50585;SDS011;36542;51.700;8.846;2023-04-24T12:27:29;2.90;;;2.70;;
50585;SDS011;36542;51.700;8.846;2023-04-24T12:29:57;3.57;;;3.27;;
50585;SDS011;36542;51.700;8.846;2023-04-24T12:32:24;2.50;;;2.30;;
50585;SDS011;36542;51.700;8.846;2023-04-24T12:34:50;4.13;;;2.50;;
50585;SDS011;36542;51.700;8.846;2023-04-24T12:37:19;3.30;;;3.00;;
50585;SDS011;36542;51.700;8.846;2023-04-24T12:39:57;4.67;;;4.10;;
50585;SDS011;36542;51.700;8.846;2023-04-24T12:42:31;3.63;;;3.30;;
50585;SDS011;36542;51.700;8.846;2023-04-24T12:45:00;5.00;;;4.00;;
50585;SDS011;36542;51.700;8.846;2023-04-24T12:47:30;4.90;;;3.27;;
50585;SDS011;36542;51.700;8.846;2023-04-24T12:49:56;5.37;;;3.80;;
50585;SDS011;36542;51.700;8.846;2023-04-24T12:52:22;4.67;;;4.10;;
50585;SDS011;36542;51.700;8.846;2023-04-24T12:54:49;4.87;;;4.30;;
50585;SDS011;36542;51.700;8.846;2023-04-24T12:57:15;5.70;;;4.00;;
50585;SDS011;36542;51.700;8.846;2023-04-24T12:59:41;5.87;;;4.17;;
50585;SDS011;36542;51.700;8.846;2023-04-24T13:02:07;6.57;;;5.10;;
50585;SDS011;36542;51.700;8.846;2023-04-24T13:04:34;5.57;;;4.27;;
50585;SDS011;36542;51.700;8.846;2023-04-24T13:06:59;7.23;;;5.40;;
50585;SDS011;36542;51.700;8.846;2023-04-24T13:09:25;8.27;;;5.67;;
50585;SDS011;36542;51.700;8.846;2023-04-24T13:11:50;9.07;;;5.47;;
50585;SDS011;36542;51.700;8.846;2023-04-24T13:14:16;8.37;;;6.10;;
50585;SDS011;36542;51.700;8.846;2023-04-24T13:16:41;9.10;;;6.73;;
50585;SDS011;36542;51.700;8.846;2023-04-24T13:19:07;11.03;;;7.33;;
50585;SDS011;36542;51.700;8.846;2023-04-24T13:21:32;11.33;;;7.77;;
50585;SDS011;36542;51.700;8.846;2023-04-24T13:23:58;10.63;;;6.87;;
50585;SDS011;36542;51.700;8.846;2023-04-24T13:26:23;10.77;;;6.93;;
50585;SDS011;36542;51.700;8.846;2023-04-24T13:28:50;8.57;;;5.90;;
50585;SDS011;36542;51.700;8.846;2023-04-24T13:31:15;7.37;;;5.87;;
50585;SDS011;36542;51.700;8.846;2023-04-24T13:33:41;11.00;;;6.57;;
50585;SDS011;36542;51.700;8.846;2023-04-24T13:36:06;8.73;;;5.60;;
50585;SDS011;36542;51.700;8.846;2023-04-24T13:38:32;9.23;;;5.87;;
50585;SDS011;36542;51.700;8.846;2023-04-24T13:40:57;13.50;;;6.63;;
50585;SDS011;36542;51.700;8.846;2023-04-24T13:43:23;10.83;;;7.83;;
50585;SDS011;36542;51.700;8.846;2023-04-24T13:45:48;10.03;;;7.17;;
50585;SDS011;36542;51.700;8.846;2023-04-24T13:48:14;12.07;;;7.53;;
50585;SDS011;36542;51.700;8.846;2023-04-24T13:50:40;15.77;;;8.20;;
50585;SDS011;36542;51.700;8.846;2023-04-24T13:53:06;14.37;;;8.90;;
50585;SDS011;36542;51.700;8.846;2023-04-24T13:55:32;12.77;;;9.57;;
50585;SDS011;36542;51.700;8.846;2023-04-24T13:57:57;18.67;;;10.57;;
50585;SDS011;36542;51.700;8.846;2023-04-24T14:00:23;16.03;;;11.33;;
50585;SDS011;36542;51.700;8.846;2023-04-24T14:02:49;15.93;;;10.87;;
50585;SDS011;36542;51.700;8.846;2023-04-24T14:05:15;16.17;;;11.00;;
50585;SDS011;36542;51.700;8.846;2023-04-24T14:07:41;20.70;;;12.47;;
50585;SDS011;36542;51.700;8.846;2023-04-24T14:10:06;17.73;;;12.87;;
50585;SDS011;36542;51.700;8.846;2023-04-24T14:12:32;20.30;;;13.70;;
50585;SDS011;36542;51.700;8.846;2023-04-24T14:14:58;23.90;;;15.07;;
50585;SDS011;36542;51.700;8.846;2023-04-24T14:17:23;25.47;;;15.10;;
50585;SDS011;36542;51.700;8.846;2023-04-24T14:19:49;19.07;;;14.40;;
50585;SDS011;36542;51.700;8.846;2023-04-24T14:22:16;25.73;;;14.97;;
50585;SDS011;36542;51.700;8.846;2023-04-24T14:24:42;23.83;;;15.73;;
50585;SDS011;36542;51.700;8.846;2023-04-24T14:27:07;25.50;;;16.13;;
50585;SDS011;36542;51.700;8.846;2023-04-24T14:29:33;24.80;;;15.73;;
50585;SDS011;36542;51.700;8.846;2023-04-24T14:31:58;24.83;;;13.97;;
50585;SDS011;36542;51.700;8.846;2023-04-24T14:34:24;21.47;;;14.67;;
50585;SDS011;36542;51.700;8.846;2023-04-24T14:36:49;24.17;;;14.63;;
50585;SDS011;36542;51.700;8.846;2023-04-24T14:39:15;17.83;;;13.97;;
50585;SDS011;36542;51.700;8.846;2023-04-24T14:41:40;21.07;;;13.80;;
50585;SDS011;36542;51.700;8.846;2023-04-24T14:44:06;18.33;;;13.23;;
50585;SDS011;36542;51.700;8.846;2023-04-24T14:46:31;18.43;;;11.07;;
50585;SDS011;36542;51.700;8.846;2023-04-24T14:48:57;17.57;;;11.47;;
50585;SDS011;36542;51.700;8.846;2023-04-24T14:51:23;16.97;;;10.97;;